Time;durP1;ratioP1;P1;durP2;ratioP2;P2;SDS_P1;SDS_P2;PMS_P1;PMS_P2;Temp;Humidity;BMP_temperature;BMP_pressure;BME280_temperature;BME280_humidity;BME280_pressure;Samples;Min_cycle;Max_cycle;Signal;HPM_P1;HPM_P2
2023/05/02 00:02:17;;;;;;;33.77;16.07;;;11.80;99.90;;;;;;7285801;19;20232;-80
2023/05/02 00:04:42;;;;;;;35.93;16.67;;;11.80;99.90;;;;;;7284859;19;20230;-80
2023/05/02 00:07:08;;;;;;;34.40;16.47;;;11.70;99.90;;;;;;7298542;19;20271;-80
2023/05/02 00:09:34;;;;;;;38.00;16.70;;;11.70;99.90;;;;;;7297975;19;20192;-79
2023/05/02 00:12:01;;;;;;;35.83;16.73;;;11.70;99.90;;;;;;7287729;19;20648;-80
2023/05/02 00:14:27;;;;;;;39.57;18.00;;;11.90;99.90;;;;;;7286607;19;20288;-79
2023/05/02 00:16:52;;;;;;;38.37;18.03;;;12.10;99.90;;;;;;7284966;19;20250;-80
2023/05/02 00:19:18;;;;;;;40.53;18.97;;;12.20;99.90;;;;;;7285878;19;20197;-80
2023/05/02 00:21:47;;;;;;;37.67;17.53;;;12.40;99.90;;;;;;7286052;19;20557;-79
2023/05/02 00:24:14;;;;;;;38.17;18.17;;;12.50;99.90;;;;;;7286125;19;20197;-79
2023/05/02 00:26:40;;;;;;;34.23;16.83;;;12.50;99.90;;;;;;7285685;19;20273;-79
2023/05/02 00:29:07;;;;;;;34.97;16.00;;;12.50;99.90;;;;;;7307995;19;20762;-80
2023/05/02 00:31:32;;;;;;;35.13;16.03;;;12.60;99.90;;;;;;7284031;19;20618;-80
2023/05/02 00:33:58;;;;;;;37.03;16.83;;;12.60;99.90;;;;;;7285215;19;20199;-79
2023/05/02 00:36:25;;;;;;;30.00;15.03;;;12.60;99.90;;;;;;7276090;19;20193;-80
2023/05/02 00:38:51;;;;;;;37.23;16.57;;;12.70;99.90;;;;;;7282889;19;20194;-80
2023/05/02 00:41:17;;;;;;;32.70;15.70;;;12.70;99.90;;;;;;7284726;19;20189;-80
2023/05/02 00:43:43;;;;;;;35.37;16.63;;;12.80;99.90;;;;;;7283955;19;20313;-79
2023/05/02 00:46:11;;;;;;;32.90;16.40;;;12.90;99.90;;;;;;7297554;19;20598;-79
2023/05/02 00:48:36;;;;;;;33.47;16.57;;;13.00;99.90;;;;;;7306470;19;20197;-79
2023/05/02 00:51:07;;;;;;;36.40;16.23;;;13.10;99.90;;;;;;7285075;19;20282;-80
2023/05/02 00:53:34;;;;;;;34.33;17.30;;;13.10;99.90;;;;;;7285815;19;20190;-80
2023/05/02 00:56:01;;;;;;;34.93;17.50;;;13.20;99.90;;;;;;7283990;19;20195;-81
2023/05/02 00:58:28;;;;;;;33.27;17.30;;;13.30;99.90;;;;;;7285269;19;20196;-80
2023/05/02 01:00:56;;;;;;;33.00;16.47;;;13.30;99.90;;;;;;7282337;19;20554;-80
2023/05/02 01:03:50;;;;;;;29.80;15.83;;;13.30;99.90;;;;;;7285408;19;20193;-80
2023/05/02 01:06:37;;;;;;;35.27;17.17;;;13.20;99.90;;;;;;7181818;19;2006129;-79
2023/05/02 01:09:28;;;;;;;33.07;16.50;;;13.20;99.90;;;;;;7285340;19;20188;-79
2023/05/02 01:12:05;;;;;;;36.77;17.47;;;13.30;99.90;;;;;;7182644;19;2004548;-80
2023/05/02 01:14:40;;;;;;;34.50;16.73;;;13.30;99.90;;;;;;7284783;19;20683;-80
2023/05/02 01:17:10;;;;;;;38.30;18.00;;;13.20;99.90;;;;;;7285037;19;20185;-80
2023/05/02 01:19:41;;;;;;;35.83;17.73;;;13.30;99.90;;;;;;7284060;19;20305;-80
2023/05/02 01:22:09;;;;;;;40.53;18.40;;;13.30;99.90;;;;;;7283802;19;20190;-80
2023/05/02 01:24:48;;;;;;;36.77;17.70;;;13.30;99.90;;;;;;7285400;19;20730;-80
2023/05/02 01:27:35;;;;;;;40.40;18.80;;;13.40;99.90;;;;;;7181927;19;2004829;-80
2023/05/02 01:30:03;;;;;;;36.47;18.53;;;13.30;99.90;;;;;;7284227;19;20695;-80
2023/05/02 01:32:32;;;;;;;35.37;17.43;;;13.30;99.90;;;;;;7283577;19;20200;-80
2023/05/02 01:34:59;;;;;;;45.27;18.43;;;13.30;99.90;;;;;;7283921;19;20194;-80
2023/05/02 01:37:27;;;;;;;38.25;20.70;;;13.20;99.90;;;;;;7282322;19;20700;-80
2023/05/02 01:39:55;;;;;;;39.80;20.23;;;12.80;99.90;;;;;;7283302;19;20200;-80
2023/05/02 01:42:24;;;;;;;40.27;20.43;;;12.90;99.90;;;;;;7282581;19;20615;-80
2023/05/02 01:44:53;;;;;;;37.07;19.13;;;13.00;99.90;;;;;;7284586;19;20202;-81
2023/05/02 01:47:23;;;;;;;39.13;19.73;;;13.10;99.90;;;;;;7282203;19;20191;-80
2023/05/02 01:49:49;;;;;;;49.53;22.17;;;13.20;99.90;;;;;;7284947;19;20770;-80
2023/05/02 01:52:19;;;;;;;43.50;22.10;;;13.30;99.90;;;;;;7290339;19;20182;-80
2023/05/02 01:54:46;;;;;;;45.20;21.10;;;13.30;99.90;;;;;;7288721;19;20191;-80
2023/05/02 01:57:13;;;;;;;40.63;21.07;;;13.30;99.90;;;;;;7289405;19;20729;-80
2023/05/02 01:59:42;;;;;;;53.53;24.03;;;13.20;99.90;;;;;;7305662;19;20548;-79
2023/05/02 02:02:10;;;;;;;56.87;25.83;;;13.30;99.90;;;;;;7312360;19;20211;-80
2023/05/02 02:04:39;;;;;;;54.40;25.97;;;13.40;99.90;;;;;;7290683;19;20195;-80
2023/05/02 02:07:11;;;;;;;51.30;27.13;;;13.30;99.90;;;;;;7290471;19;20287;-80
2023/05/02 02:09:38;;;;;;;55.10;27.00;;;13.30;99.90;;;;;;7289545;19;20196;-80
2023/05/02 02:12:27;;;;;;;57.03;27.03;;;13.40;99.90;;;;;;7289001;19;20182;-80
2023/05/02 02:15:02;;;;;;;56.07;27.07;;;13.20;99.90;;;;;;7190779;19;2004744;-79
2023/05/02 02:17:54;;;;;;;57.50;28.43;;;13.00;99.90;;;;;;7289410;19;20222;-80
2023/05/02 02:20:21;;;;;;;59.07;28.00;;;13.00;99.90;;;;;;7185504;19;2004385;-80
2023/05/02 02:22:48;;;;;;;60.33;29.03;;;13.10;99.90;;;;;;7288232;19;21069;-80
2023/05/02 02:25:16;;;;;;;61.80;28.80;;;13.20;99.90;;;;;;7290411;19;20560;-80
2023/05/02 02:27:43;;;;;;;68.03;29.80;;;13.10;99.90;;;;;;7288464;19;20661;-80
2023/05/02 02:30:09;;;;;;;63.90;30.13;;;13.10;99.90;;;;;;7308980;19;20196;-78
2023/05/02 02:32:36;;;;;;;63.37;30.20;;;13.10;99.90;;;;;;7311597;19;20719;-80
2023/05/02 02:35:03;;;;;;;62.57;30.10;;;13.10;99.90;;;;;;7288034;19;20189;-80
2023/05/02 02:37:36;;;;;;;66.30;29.77;;;13.00;99.90;;;;;;7288592;19;20213;-80
2023/05/02 02:40:14;;;;;;;74.33;31.93;;;13.00;99.90;;;;;;7288365;19;20631;-80
2023/05/02 02:42:54;;;;;;;68.83;31.43;;;13.00;99.90;;;;;;7266606;19;20547;-80
2023/05/02 02:45:34;;;;;;;68.33;31.33;;;13.00;99.90;;;;;;7290060;19;20218;-80
2023/05/02 02:48:21;;;;;;;63.77;29.67;;;12.80;99.90;;;;;;7287935;19;20202;-80
2023/05/02 02:51:11;;;;;;;61.50;29.53;;;12.70;99.90;;;;;;7187248;19;2006138;-80
2023/05/02 02:53:37;;;;;;;69.33;31.23;;;12.50;99.90;;;;;;7288341;19;20193;-81
2023/05/02 02:56:12;;;;;;;69.50;31.87;;;12.60;99.90;;;;;;7284581;19;20215;-80
2023/05/02 02:58:46;;;;;;;71.47;33.03;;;12.70;99.90;;;;;;7288803;19;20194;-80
2023/05/02 03:01:19;;;;;;;67.87;32.00;;;12.40;99.90;;;;;;7263762;19;20180;-79
2023/05/02 03:03:50;;;;;;;72.37;33.73;;;12.40;99.90;;;;;;7289416;19;20872;-80
2023/05/02 03:06:20;;;;;;;80.23;35.00;;;12.30;99.90;;;;;;7285633;19;20187;-79
2023/05/02 03:08:46;;;;;;;80.83;35.13;;;12.40;99.90;;;;;;7287782;19;20192;-80
2023/05/02 03:11:17;;;;;;;72.93;35.00;;;12.50;99.90;;;;;;7288847;19;20188;-79
2023/05/02 03:13:42;;;;;;;76.83;35.37;;;12.60;99.90;;;;;;7288089;19;20208;-80
2023/05/02 03:16:32;;;;;;;73.90;34.87;;;12.60;99.90;;;;;;7311189;19;20273;-79
2023/05/02 03:18:59;;;;;;;73.83;34.37;;;12.50;99.90;;;;;;7185130;19;2004630;-79
2023/05/02 03:21:25;;;;;;;71.90;33.27;;;12.50;99.90;;;;;;7286412;19;20187;-80
2023/05/02 03:23:52;;;;;;;74.87;33.47;;;12.30;99.90;;;;;;7288310;19;20657;-80
2023/05/02 03:26:18;;;;;;;69.87;31.93;;;12.30;99.90;;;;;;7287883;19;20260;-80
2023/05/02 03:28:47;;;;;;;62.60;30.23;;;12.20;99.90;;;;;;7287092;19;20187;-80
2023/05/02 03:31:18;;;;;;;69.90;32.33;;;12.00;99.90;;;;;;7286442;19;20714;-80
2023/05/02 03:33:45;;;;;;;66.07;33.13;;;11.90;99.90;;;;;;7287507;19;20190;-79
2023/05/02 03:36:11;;;;;;;72.00;33.37;;;11.80;99.90;;;;;;7289375;19;20202;-79
2023/05/02 03:38:38;;;;;;;84.17;35.60;;;11.90;99.90;;;;;;7308714;19;20684;-80
2023/05/02 03:41:07;;;;;;;85.17;35.63;;;12.00;99.90;;;;;;7287137;19;20592;-80
2023/05/02 03:43:33;;;;;;;73.63;33.83;;;12.10;99.90;;;;;;7286988;19;20184;-79
2023/05/02 03:46:05;;;;;;;75.63;33.40;;;12.10;99.90;;;;;;7286602;19;20225;-80
2023/05/02 03:48:31;;;;;;;80.17;35.90;;;12.10;99.90;;;;;;7287125;19;20209;-80
2023/05/02 03:50:57;;;;;;;73.80;34.97;;;12.20;99.90;;;;;;7292346;19;20191;-81
2023/05/02 03:53:23;;;;;;;81.27;35.03;;;11.90;99.90;;;;;;7301730;19;20189;-80
2023/05/02 03:55:54;;;;;;;79.33;36.33;;;11.40;99.90;;;;;;7289047;19;20203;-80
2023/05/02 03:58:27;;;;;;;78.63;35.30;;;11.30;99.90;;;;;;7285428;19;20210;-80
2023/05/02 04:00:54;;;;;;;77.17;33.57;;;11.20;99.90;;;;;;7286335;19;20662;-80
2023/05/02 04:03:21;;;;;;;76.03;34.93;;;11.30;99.90;;;;;;7285897;19;20196;-81
2023/05/02 04:05:47;;;;;;;79.73;34.23;;;11.20;99.90;;;;;;7286644;19;20191;-81
2023/05/02 04:08:16;;;;;;;78.20;34.40;;;11.30;99.90;;;;;;7284782;19;20665;-80
2023/05/02 04:10:42;;;;;;;78.37;35.33;;;11.40;99.90;;;;;;7287424;19;20199;-80
2023/05/02 04:13:10;;;;;;;86.23;35.20;;;11.60;99.90;;;;;;7301489;19;20188;-79
2023/05/02 04:15:39;;;;;;;74.87;34.07;;;11.70;99.90;;;;;;7307833;19;20292;-80
2023/05/02 04:18:05;;;;;;;82.93;35.13;;;11.60;99.90;;;;;;7288328;19;20222;-80
2023/05/02 04:20:33;;;;;;;80.60;34.07;;;11.40;99.90;;;;;;7287379;19;20221;-81
2023/05/02 04:22:59;;;;;;;77.27;34.50;;;11.30;99.90;;;;;;7285434;19;20258;-81
2023/05/02 04:25:25;;;;;;;79.13;35.50;;;11.30;99.90;;;;;;7284732;19;20657;-80
2023/05/02 04:27:54;;;;;;;80.90;33.57;;;11.50;99.90;;;;;;7284896;19;20197;-81
2023/05/02 04:30:22;;;;;;;73.77;32.83;;;11.70;99.90;;;;;;7286077;19;20203;-81
2023/05/02 04:33:02;;;;;;;77.40;33.37;;;11.80;99.90;;;;;;7286396;19;20189;-80
2023/05/02 04:35:32;;;;;;;74.80;32.10;;;11.90;99.90;;;;;;7287135;19;20598;-80
2023/05/02 04:37:58;;;;;;;77.23;33.40;;;11.80;99.90;;;;;;7284833;19;20206;-80
2023/05/02 04:40:25;;;;;;;73.30;31.83;;;11.80;99.90;;;;;;7284179;19;20192;-80
2023/05/02 04:42:58;;;;;;;76.43;33.57;;;11.80;99.90;;;;;;7287708;19;20210;-80
2023/05/02 04:45:30;;;;;;;79.67;34.60;;;11.80;99.90;;;;;;7287895;19;20272;-80
2023/05/02 04:47:56;;;;;;;74.67;33.33;;;11.90;99.90;;;;;;7285239;19;20214;-80
2023/05/02 04:50:21;;;;;;;69.30;31.67;;;12.00;99.90;;;;;;7285645;19;20220;-81
2023/05/02 04:52:47;;;;;;;71.00;32.97;;;12.10;99.90;;;;;;7286636;19;20180;-80
2023/05/02 04:55:14;;;;;;;73.77;33.40;;;12.20;99.90;;;;;;7285916;19;20199;-81
2023/05/02 04:57:40;;;;;;;69.23;30.80;;;12.40;99.90;;;;;;7298900;19;20555;-80
2023/05/02 05:00:09;;;;;;;70.90;31.40;;;12.50;99.90;;;;;;7306487;19;20195;-80
2023/05/02 05:02:34;;;;;;;66.80;30.97;;;12.60;99.90;;;;;;7286339;19;20703;-80
2023/05/02 05:05:01;;;;;;;67.83;31.93;;;12.60;99.90;;;;;;7286246;19;20184;-82
2023/05/02 05:07:27;;;;;;;94.63;34.67;;;12.60;99.90;;;;;;7285061;19;20226;-81
2023/05/02 05:09:54;;;;;;;110.40;36.53;;;12.70;99.90;;;;;;7288305;19;20189;-85
2023/05/02 05:12:23;;;;;;;97.63;35.40;;;12.80;99.90;;;;;;7285304;19;20183;-80
2023/05/02 05:14:49;;;;;;;95.50;35.80;;;12.70;99.90;;;;;;7283558;19;20204;-79
2023/05/02 05:17:16;;;;;;;92.90;35.47;;;12.80;99.90;;;;;;7344666;19;20222;-80
2023/05/02 05:19:41;;;;;;;85.03;35.60;;;12.80;99.90;;;;;;7324559;19;20178;-80
2023/05/02 05:22:08;;;;;;;89.20;36.03;;;13.00;99.90;;;;;;7280472;19;20219;-82
2023/05/02 05:24:34;;;;;;;86.50;35.30;;;13.00;99.90;;;;;;7283338;19;20180;-82
2023/05/02 05:27:01;;;;;;;83.13;34.20;;;12.90;99.90;;;;;;7285934;19;20253;-81
2023/05/02 05:29:27;;;;;;;84.97;34.50;;;12.80;99.90;;;;;;7286458;19;20224;-82
2023/05/02 05:31:53;;;;;;;76.07;33.67;;;12.90;99.90;;;;;;7287597;19;20183;-81
2023/05/02 05:34:20;;;;;;;68.53;33.43;;;12.80;99.90;;;;;;7285452;19;20187;-81
2023/05/02 05:36:47;;;;;;;69.73;33.17;;;12.30;99.90;;;;;;7295074;19;20183;-81
2023/05/02 05:39:14;;;;;;;71.50;32.27;;;12.40;99.90;;;;;;7297938;19;20216;-80
2023/05/02 05:41:42;;;;;;;70.13;32.17;;;12.20;99.90;;;;;;7296285;19;20193;-80
2023/05/02 05:44:10;;;;;;;66.03;30.70;;;11.90;99.90;;;;;;7314811;19;20200;-79
2023/05/02 05:46:36;;;;;;;65.60;30.23;;;11.90;99.90;;;;;;7307047;19;20184;-81
2023/05/02 05:49:03;;;;;;;67.83;33.17;;;12.10;99.90;;;;;;7290283;19;20194;-81
2023/05/02 05:51:30;;;;;;;69.37;31.80;;;12.30;99.90;;;;;;7296797;19;20189;-81
2023/05/02 05:53:58;;;;;;;66.73;32.27;;;12.30;99.90;;;;;;7295983;19;20504;-81
2023/05/02 05:56:23;;;;;;;67.33;31.47;;;12.30;99.90;;;;;;7289088;19;20185;-81
2023/05/02 05:58:56;;;;;;;67.03;30.80;;;12.40;99.90;;;;;;7284449;19;20195;-82
2023/05/02 06:01:22;;;;;;;67.33;30.90;;;12.70;99.90;;;;;;7284316;19;20213;-83
2023/05/02 06:03:48;;;;;;;66.93;30.53;;;12.60;99.90;;;;;;7283209;19;20192;-82
2023/05/02 06:06:16;;;;;;;68.53;31.20;;;12.50;99.90;;;;;;7289735;19;20183;-81
2023/05/02 06:08:41;;;;;;;61.40;29.20;;;12.70;99.90;;;;;;7284077;19;20195;-81
2023/05/02 06:11:11;;;;;;;66.23;29.37;;;12.80;99.90;;;;;;7307212;19;20269;-82
2023/05/02 06:13:37;;;;;;;59.40;29.60;;;12.90;99.90;;;;;;7284204;19;20651;-82
2023/05/02 06:16:03;;;;;;;59.17;27.27;;;13.00;99.90;;;;;;7284156;19;20180;-82
2023/05/02 06:18:29;;;;;;;58.13;27.50;;;13.10;99.90;;;;;;7283934;19;20638;-82
2023/05/02 06:20:55;;;;;;;56.93;26.10;;;13.20;99.90;;;;;;7284483;19;20181;-81
2023/05/02 06:23:21;;;;;;;53.90;26.23;;;13.10;99.90;;;;;;7285459;19;20199;-81
2023/05/02 06:25:46;;;;;;;53.37;26.37;;;13.10;99.90;;;;;;7284965;19;20617;-81
2023/05/02 06:28:12;;;;;;;49.27;23.80;;;13.20;99.90;;;;;;7282938;19;20259;-81
2023/05/02 06:30:38;;;;;;;51.37;24.40;;;13.00;99.90;;;;;;7306494;19;20195;-81
2023/05/02 06:33:04;;;;;;;49.00;24.00;;;12.90;99.90;;;;;;7284992;19;20221;-81
2023/05/02 06:35:30;;;;;;;54.87;24.80;;;13.00;99.90;;;;;;7285591;19;20213;-82
2023/05/02 06:37:56;;;;;;;49.70;25.20;;;12.90;99.90;;;;;;7292680;19;20203;-82
2023/05/02 06:40:22;;;;;;;45.60;23.20;;;12.90;99.90;;;;;;7289334;19;20192;-82
2023/05/02 06:42:47;;;;;;;46.87;23.33;;;13.00;99.90;;;;;;7291002;19;20549;-81
2023/05/02 06:45:13;;;;;;;43.83;22.83;;;12.90;99.90;;;;;;7290129;19;20185;-81
2023/05/02 06:47:39;;;;;;;47.87;24.03;;;13.10;99.90;;;;;;7312553;19;20210;-82
2023/05/02 06:50:05;;;;;;;56.87;28.00;;;13.10;99.90;;;;;;7293312;19;20194;-82
2023/05/02 06:52:31;;;;;;;51.20;26.00;;;13.10;99.90;;;;;;7287476;19;20249;-82
2023/05/02 06:54:57;;;;;;;43.13;24.57;;;13.20;99.90;;;;;;7288419;19;20686;-82
2023/05/02 06:57:23;;;;;;;38.97;22.87;;;13.20;99.90;;;;;;7289118;19;20256;-81
2023/05/02 06:59:49;;;;;;;40.77;22.90;;;13.20;99.90;;;;;;7289558;19;20188;-82
2023/05/02 07:02:15;;;;;;;41.37;23.80;;;13.20;99.90;;;;;;7290105;19;20194;-82
2023/05/02 07:04:41;;;;;;;43.17;22.40;;;13.30;99.90;;;;;;7296989;19;20227;-81
2023/05/02 07:07:06;;;;;;;36.27;21.47;;;13.20;99.90;;;;;;7311012;19;20540;-83
2023/05/02 07:09:32;;;;;;;42.30;23.10;;;13.30;99.90;;;;;;7289041;19;20187;-82
2023/05/02 07:11:58;;;;;;;43.20;22.20;;;13.30;99.90;;;;;;7290911;19;20645;-82
2023/05/02 07:14:24;;;;;;;41.83;22.10;;;13.30;99.90;;;;;;7289775;19;20196;-82
2023/05/02 07:16:49;;;;;;;40.00;21.20;;;13.30;99.90;;;;;;7289251;19;20223;-82
2023/05/02 07:19:15;;;;;;;37.80;19.90;;;13.30;99.90;;;;;;7285401;19;20604;-82
2023/05/02 07:21:41;;;;;;;33.47;19.70;;;13.20;99.90;;;;;;7294411;19;20250;-81
2023/05/02 07:24:07;;;;;;;39.83;19.97;;;13.20;99.90;;;;;;7310293;19;20184;-82
2023/05/02 07:26:32;;;;;;;40.93;21.97;;;13.20;99.90;;;;;;7288152;19;20200;-82
2023/05/02 07:28:58;;;;;;;36.07;21.93;;;13.40;99.90;;;;;;7286562;19;20184;-82
2023/05/02 07:31:24;;;;;;;32.07;20.73;;;13.30;99.90;;;;;;7288717;19;20188;-82
2023/05/02 07:33:50;;;;;;;33.73;20.50;;;13.50;99.90;;;;;;7287367;19;20187;-82
2023/05/02 07:36:16;;;;;;;33.80;21.27;;;14.20;99.90;;;;;;7285021;19;20221;-82
2023/05/02 07:38:42;;;;;;;30.37;20.70;;;15.10;99.90;;;;;;7286237;19;20205;-82
2023/05/02 07:41:08;;;;;;;34.90;18.50;;;16.50;99.90;;;;;;7309252;19;20194;-82
2023/05/02 07:43:34;;;;;;;33.37;19.17;;;17.50;99.90;;;;;;7287227;19;20181;-82
2023/05/02 07:46:04;;;;;;;32.53;20.03;;;17.40;99.90;;;;;;7287193;19;21006;-82
2023/05/02 07:48:31;;;;;;;32.13;21.27;;;17.40;99.90;;;;;;7283476;19;20227;-83
2023/05/02 07:51:05;;;;;;;31.20;21.70;;;17.50;99.90;;;;;;7287510;19;20197;-82
2023/05/02 07:53:31;;;;;;;31.63;21.27;;;17.50;99.90;;;;;;7287107;19;20525;-83
2023/05/02 07:55:56;;;;;;;34.03;21.70;;;17.70;99.90;;;;;;7286724;19;20206;-82
2023/05/02 07:58:22;;;;;;;29.50;19.60;;;17.70;99.90;;;;;;7287413;19;20192;-83
2023/05/02 08:00:49;;;;;;;24.97;16.10;;;17.90;99.90;;;;;;7285915;19;20216;-83
2023/05/02 08:03:14;;;;;;;26.43;18.07;;;19.80;99.90;;;;;;7287522;19;20212;-82
2023/05/02 08:05:40;;;;;;;31.57;20.13;;;21.20;99.90;;;;;;7306249;19;20188;-81
2023/05/02 08:08:06;;;;;;;28.33;19.80;;;22.40;99.90;;;;;;7302607;19;20192;-83
2023/05/02 08:10:32;;;;;;;28.10;19.37;;;23.00;99.90;;;;;;7288649;19;20232;-83
2023/05/02 08:12:58;;;;;;;28.83;19.87;;;23.30;99.90;;;;;;7286543;19;20206;-83
2023/05/02 08:15:23;;;;;;;26.70;17.67;;;24.20;99.90;;;;;;7288197;19;20248;-83
2023/05/02 08:17:50;;;;;;;26.40;18.33;;;24.40;99.90;;;;;;7286864;19;20193;-83
2023/05/02 08:20:16;;;;;;;21.73;16.10;;;24.10;99.90;;;;;;7287255;19;20202;-83
2023/05/02 08:22:41;;;;;;;23.03;17.93;;;25.90;99.90;;;;;;7291713;19;20197;-82
2023/05/02 08:25:07;;;;;;;25.23;18.03;;;26.30;99.90;;;;;;7311773;19;20197;-83
2023/05/02 08:27:34;;;;;;;24.77;17.50;;;25.00;99.90;;;;;;7286008;19;20547;-83
2023/05/02 08:30:00;;;;;;;32.47;18.87;;;23.20;99.90;;;;;;7287788;19;20587;-83
2023/05/02 08:32:26;;;;;;;25.07;17.47;;;21.60;99.90;;;;;;7287006;19;20200;-83
2023/05/02 08:34:58;;;;;;;27.53;18.47;;;20.30;99.90;;;;;;7286799;19;20196;-83
2023/05/02 08:37:23;;;;;;;27.50;18.80;;;19.60;99.90;;;;;;7286269;19;20282;-82
2023/05/02 08:39:49;;;;;;;32.60;20.70;;;18.90;99.90;;;;;;7287446;19;20193;-82
2023/05/02 08:42:15;;;;;;;30.27;20.50;;;18.80;99.90;;;;;;7286633;19;20189;-82
2023/05/02 08:44:41;;;;;;;30.40;20.57;;;18.80;99.90;;;;;;7301010;19;20530;-82
2023/05/02 08:47:10;;;;;;;30.43;19.63;;;18.40;99.90;;;;;;7299445;19;20743;-82
2023/05/02 08:49:37;;;;;;;27.73;18.70;;;18.30;99.90;;;;;;7285565;19;20180;-83
2023/05/02 08:52:05;;;;;;;28.93;18.27;;;18.10;99.90;;;;;;7286402;19;20192;-82
2023/05/02 08:54:32;;;;;;;32.57;19.37;;;17.60;99.90;;;;;;7284397;19;20208;-83
2023/05/02 08:56:58;;;;;;;26.60;17.40;;;18.20;99.90;;;;;;7284141;19;20189;-83
2023/05/02 08:59:24;;;;;;;22.93;14.53;;;19.00;99.90;;;;;;7280484;19;20181;-82
2023/05/02 09:01:57;;;;;;;21.93;14.00;;;20.20;99.90;;;;;;7284292;19;20249;-82
2023/05/02 09:04:28;;;;;;;24.97;15.70;;;21.30;99.90;;;;;;7284116;19;20203;-83
2023/05/02 09:06:53;;;;;;;17.50;11.70;;;22.90;99.90;;;;;;7284532;19;20193;-82
2023/05/02 09:09:19;;;;;;;14.57;10.47;;;21.90;99.90;;;;;;7283388;19;20221;-82
2023/05/02 09:11:46;;;;;;;16.50;11.27;;;22.30;99.90;;;;;;7284079;19;20202;-82
2023/05/02 09:14:16;;;;;;;17.87;10.03;;;22.10;99.90;;;;;;7285333;19;20179;-82
2023/05/02 09:16:42;;;;;;;16.10;10.77;;;21.30;99.90;;;;;;7293060;19;20190;-82
2023/05/02 09:19:08;;;;;;;14.97;8.50;;;22.10;99.90;;;;;;7306771;19;20188;-83
2023/05/02 09:21:39;;;;;;;12.27;7.87;;;23.20;99.90;;;;;;7282744;19;20222;-82
2023/05/02 09:24:16;;;;;;;13.37;8.90;;;21.90;99.90;;;;;;7283089;19;20276;-83
2023/05/02 09:26:55;;;;;;;14.67;8.40;;;21.50;99.90;;;;;;7262219;19;20194;-82
2023/05/02 09:29:21;;;;;;;15.23;8.50;;;20.60;99.90;;;;;;7284685;19;20200;-83
2023/05/02 09:31:46;;;;;;;14.57;9.00;;;21.20;99.90;;;;;;7282850;19;20651;-82
2023/05/02 09:34:16;;;;;;;13.97;8.00;;;22.10;99.90;;;;;;7285643;19;20547;-82
2023/05/02 09:36:46;;;;;;;12.13;6.07;;;23.40;99.90;;;;;;7288724;19;20185;-82
2023/05/02 09:39:14;;;;;;;14.00;7.30;;;23.60;99.90;;;;;;7290125;19;20207;-82
2023/05/02 09:41:41;;;;;;;19.20;10.90;;;25.40;99.90;;;;;;7304704;19;20200;-83
2023/05/02 09:44:15;;;;;;;17.13;8.70;;;26.70;99.90;;;;;;7285161;19;20179;-83
2023/05/02 09:46:49;;;;;;;16.48;9.55;;;26.60;97.20;;;;;;7274257;19;20180;-83
2023/05/02 09:49:18;;;;;;;18.23;9.52;;;25.90;99.20;;;;;;7285345;19;20192;-82
2023/05/02 09:51:48;;;;;;;16.20;8.10;;;28.00;95.10;;;;;;7284962;19;20204;-82
2023/05/02 09:54:34;;;;;;;17.38;8.55;;;27.60;92.20;;;;;;7282354;19;20185;-82
2023/05/02 09:57:00;;;;;;;14.27;8.00;;;27.30;91.30;;;;;;7282722;19;22029;-83
2023/05/02 09:59:26;;;;;;;14.70;7.32;;;26.80;93.70;;;;;;7283987;19;20205;-82
2023/05/02 10:02:04;;;;;;;11.50;7.33;;;25.10;91.80;;;;;;7283733;19;20260;-82
2023/05/02 10:04:33;;;;;;;17.67;9.47;;;23.90;93.80;;;;;;7283929;19;20188;-83
2023/05/02 10:07:01;;;;;;;14.77;9.43;;;23.70;97.00;;;;;;7282542;19;20645;-82
2023/05/02 10:09:31;;;;;;;17.10;9.23;;;23.00;97.80;;;;;;7282673;19;20185;-82
2023/05/02 10:12:03;;;;;;;16.13;8.30;;;22.00;99.90;;;;;;7289351;19;20538;-83
2023/05/02 10:14:34;;;;;;;13.93;8.07;;;22.70;99.90;;;;;;7289831;19;20949;-83
2023/05/02 10:17:09;;;;;;;15.87;8.13;;;23.60;98.00;;;;;;7291648;19;20189;-83
2023/05/02 10:19:54;;;;;;;13.90;7.33;;;25.50;95.30;;;;;;7289240;19;20180;-83
2023/05/02 10:22:21;;;;;;;14.73;8.73;;;26.40;92.10;;;;;;7187348;19;2004624;-82
2023/05/02 10:24:51;;;;;;;13.97;9.63;;;24.90;94.90;;;;;;7284376;19;20586;-83
2023/05/02 10:27:17;;;;;;;12.53;8.70;;;24.50;94.80;;;;;;7290389;19;20278;-82
2023/05/02 10:29:43;;;;;;;19.63;9.23;;;25.10;94.40;;;;;;7288131;19;20181;-82
2023/05/02 10:32:10;;;;;;;13.40;8.57;;;24.30;94.20;;;;;;7311983;19;20653;-83
2023/05/02 10:34:37;;;;;;;12.50;7.43;;;24.20;95.40;;;;;;7291880;19;20655;-83
2023/05/02 10:37:03;;;;;;;12.83;8.23;;;25.00;94.00;;;;;;7295995;19;20205;-83
2023/05/02 10:39:30;;;;;;;15.27;8.07;;;25.70;93.00;;;;;;7304993;19;20189;-83
2023/05/02 10:41:58;;;;;;;13.50;7.57;;;26.10;93.10;;;;;;7319317;19;20181;-82
2023/05/02 10:44:33;;;;;;;13.13;7.43;;;23.90;90.70;;;;;;7290266;19;20204;-83
2023/05/02 10:46:59;;;;;;;13.60;9.03;;;22.90;93.90;;;;;;7287884;19;20192;-83
2023/05/02 10:49:26;;;;;;;11.10;7.53;;;23.40;93.50;;;;;;7290111;19;20189;-82
2023/05/02 10:51:52;;;;;;;12.73;8.53;;;24.00;92.00;;;;;;7290586;19;20189;-83
2023/05/02 10:54:18;;;;;;;12.50;7.50;;;25.60;92.20;;;;;;7288556;19;20224;-83
2023/05/02 10:57:07;;;;;;;12.53;6.60;;;26.10;90.20;;;;;;7286844;19;20184;-81
2023/05/02 10:59:42;;;;;;;10.37;7.27;;;25.90;86.10;;;;;;7285318;19;20225;-81
2023/05/02 11:02:23;;;;;;;13.07;7.43;;;24.40;90.60;;;;;;7288698;19;20220;-82
2023/05/02 11:05:00;;;;;;;10.67;7.57;;;25.00;90.00;;;;;;7187021;19;2006089;-82
2023/05/02 11:07:25;;;;;;;10.70;6.37;;;25.30;85.50;;;;;;7288265;19;20263;-82
2023/05/02 11:09:51;;;;;;;12.63;7.70;;;25.60;90.20;;;;;;7287700;19;20210;-82
2023/05/02 11:12:48;;;;;;;10.43;6.33;;;26.50;85.90;;;;;;7288043;19;20607;-81
2023/05/02 11:15:26;;;;;;;12.30;5.60;;;26.80;84.70;;;;;;7266298;19;20195;-81
2023/05/02 11:18:10;;;;;;;11.00;6.18;;;27.00;79.50;;;;;;7287208;19;20192;-81
2023/05/02 11:20:41;;;;;;;12.18;6.28;;;26.50;80.10;;;;;;7287394;19;20189;-82
2023/05/02 11:23:12;;;;;;;9.63;6.75;;;26.50;82.60;;;;;;7285222;19;20197;-82
2023/05/02 11:25:44;;;;;;;9.88;7.40;;;25.20;88.30;;;;;;7287104;19;20189;-82
2023/05/02 11:28:51;;;;;;;10.70;6.47;;;25.50;90.20;;;;;;7287662;19;20191;-81
2023/05/02 11:31:25;;;;;;;8.57;6.40;;;24.10;84.90;;;;;;7084244;19;2004902;-81
2023/05/02 11:33:59;;;;;;;11.53;6.87;;;23.60;91.60;;;;;;7287642;19;20200;-82
2023/05/02 11:36:28;;;;;;;10.97;6.70;;;24.50;91.30;;;;;;7287301;19;20193;-82
2023/05/02 11:38:54;;;;;;;12.43;5.73;;;25.60;89.70;;;;;;7288074;19;20193;-82
2023/05/02 11:41:20;;;;;;;12.00;6.53;;;26.10;88.20;;;;;;7287473;19;20188;-81
2023/05/02 11:43:46;;;;;;;13.43;6.60;;;25.60;85.50;;;;;;7288430;19;20189;-81
2023/05/02 11:46:12;;;;;;;11.60;6.40;;;25.40;88.00;;;;;;7297996;19;20226;-81
2023/05/02 11:48:38;;;;;;;12.25;5.20;;;26.90;83.50;;;;;;7306458;19;20197;-81
2023/05/02 11:51:05;;;;;;;10.40;6.20;;;26.60;84.30;;;;;;7286050;19;20193;-81
2023/05/02 11:53:32;;;;;;;12.33;5.63;;;25.30;86.20;;;;;;7289057;19;20198;-82
2023/05/02 11:56:00;;;;;;;13.40;5.80;;;24.90;82.00;;;;;;7286966;19;20208;-82
2023/05/02 11:58:32;;;;;;;11.40;6.33;;;24.40;90.90;;;;;;7285110;19;20276;-82
2023/05/02 12:01:19;;;;;;;13.77;6.33;;;25.20;90.00;;;;;;7286074;19;20199;-82
2023/05/02 12:03:47;;;;;;;12.40;6.23;;;25.40;84.60;;;;;;7263519;19;20212;-81
2023/05/02 12:06:15;;;;;;;12.27;6.57;;;24.00;84.70;;;;;;7295155;19;20192;-81
2023/05/02 12:08:42;;;;;;;12.33;6.87;;;23.50;86.00;;;;;;7307815;19;20189;-82
2023/05/02 12:11:08;;;;;;;12.10;6.37;;;23.40;89.20;;;;;;7285464;19;20184;-82
2023/05/02 12:13:34;;;;;;;11.93;6.07;;;23.60;86.90;;;;;;7283839;19;20688;-83
2023/05/02 12:16:00;;;;;;;13.00;6.37;;;23.90;89.00;;;;;;7285617;19;20193;-81
2023/05/02 12:18:26;;;;;;;13.40;6.33;;;23.20;89.70;;;;;;7286375;19;20222;-82
2023/05/02 12:20:53;;;;;;;15.10;6.10;;;22.60;88.60;;;;;;7284007;19;20193;-81
2023/05/02 12:23:21;;;;;;;13.17;5.87;;;21.90;90.70;;;;;;7285542;19;20195;-81
2023/05/02 12:25:48;;;;;;;16.03;6.90;;;21.20;92.30;;;;;;7307431;19;20574;-81
2023/05/02 12:28:16;;;;;;;14.77;6.87;;;20.90;92.30;;;;;;7261998;19;20192;-80
2023/05/02 12:30:41;;;;;;;13.37;6.43;;;20.30;92.20;;;;;;7305276;19;20272;-79
2023/05/02 12:33:07;;;;;;;16.87;7.60;;;19.50;93.60;;;;;;7296088;19;20206;-82
2023/05/02 12:35:34;;;;;;;20.30;7.47;;;19.30;96.40;;;;;;7285907;19;20739;-81
2023/05/02 12:38:11;;;;;;;14.17;6.83;;;19.50;97.00;;;;;;7287923;19;20642;-81